Time;durP1;ratioP1;P1;durP2;ratioP2;P2;SDS_P1;SDS_P2;PMS_P1;PMS_P2;Temp;Humidity;BMP_temperature;BMP_pressure;BME280_temperature;BME280_humidity;BME280_pressure;Samples;Min_cycle;Max_cycle;Signal;HPM_P1;HPM_P2
2022/01/10 00:00:13;;;;;;;18.38;5.72;;;;;;;4.72;100.00;99982.16;5279566;27;20024;-81
2022/01/10 00:02:45;;;;;;;14.38;5.97;;;;;;;4.65;100.00;99982.31;5299239;27;20030;-81
2022/01/10 00:05:16;;;;;;;11.48;5.68;;;;;;;4.54;100.00;99982.53;5270771;28;20023;-81
2022/01/10 00:07:47;;;;;;;11.35;5.85;;;;;;;4.54;100.00;99986.84;5276769;27;20023;-81
2022/01/10 00:10:18;;;;;;;12.70;5.35;;;;;;;4.54;100.00;99995.47;5277596;27;20027;-82
2022/01/10 00:12:49;;;;;;;14.52;5.88;;;;;;;4.51;100.00;100003.31;5299194;27;20466;-81
2022/01/10 00:15:20;;;;;;;12.15;5.05;;;;;;;4.46;100.00;99999.94;5270739;28;20030;-81
2022/01/10 00:17:50;;;;;;;15.50;5.75;;;;;;;4.41;100.00;100006.94;5287348;28;20031;-81
2022/01/10 00:20:21;;;;;;;13.63;5.13;;;;;;;4.37;100.00;100010.47;5281805;27;20758;-80
2022/01/10 00:22:51;;;;;;;10.18;4.85;;;;;;;4.31;100.00;100014.91;5297632;27;20031;-81
2022/01/10 00:25:22;;;;;;;16.80;5.22;;;;;;;4.40;100.00;100017.31;5271145;27;20060;-82
2022/01/10 00:27:54;;;;;;;12.38;5.13;;;;;;;4.45;100.00;100013.75;5276731;28;20030;-81
2022/01/10 00:30:25;;;;;;;10.27;5.07;;;;;;;4.36;100.00;100013.09;5299499;27;20102;-81
2022/01/10 00:32:55;;;;;;;18.00;5.63;;;;;;;4.48;100.00;100016.28;5275543;27;20028;-81
2022/01/10 00:35:26;;;;;;;14.35;6.07;;;;;;;4.47;100.00;100017.16;5227756;28;20919;-81
2022/01/10 00:37:56;;;;;;;13.82;5.32;;;;;;;4.59;100.00;100026.41;5270568;27;20053;-81
2022/01/10 00:40:26;;;;;;;13.57;5.70;;;;;;;4.62;100.00;100036.72;5265161;28;20544;-81
2022/01/10 00:42:57;;;;;;;15.90;6.18;;;;;;;4.68;100.00;100039.16;5250062;28;20031;-81
2022/01/10 00:45:28;;;;;;;12.48;5.38;;;;;;;4.69;100.00;100043.44;5279363;28;20412;-81
2022/01/10 00:47:59;;;;;;;13.15;5.43;;;;;;;4.62;100.00;100041.88;5235906;28;20027;-81
2022/01/10 00:50:30;;;;;;;13.02;5.07;;;;;;;4.74;100.00;100051.97;5236509;28;20027;-81
2022/01/10 00:53:01;;;;;;;18.15;5.85;;;;;;;4.70;100.00;100053.78;5262277;28;20117;-82
2022/01/10 00:55:32;;;;;;;13.95;5.38;;;;;;;4.62;100.00;100067.75;5254053;28;20102;-81
2022/01/10 00:58:02;;;;;;;15.15;5.25;;;;;;;4.41;100.00;100071.59;5266530;27;20164;-80
2022/01/10 01:00:32;;;;;;;15.65;5.35;;;;;;;4.51;100.00;100067.09;5262074;28;20033;-82
2022/01/10 01:03:03;;;;;;;10.25;5.35;;;;;;;4.51;100.00;100074.88;5270550;28;20033;-82
2022/01/10 01:05:38;;;;;;;10.52;5.60;;;;;;;4.41;100.00;100083.69;5251333;28;20494;-80
2022/01/10 01:08:09;;;;;;;;;;;;;;;4.51;100.00;100085.22;5249504;28;20028;-81
2022/01/10 01:13:39;;;;;;;14.80;5.30;;;;;;;4.55;100.00;100103.25;5253250;28;20046;-81
2022/01/10 01:16:14;;;;;;;15.60;5.75;;;;;;;4.58;100.00;100110.94;5233812;28;20113;-81
2022/01/10 01:24:13;;;;;;;13.63;5.70;;;;;;;4.56;100.00;100117.03;5259923;28;20068;-81
2022/01/10 01:26:46;;;;;;;11.68;5.43;;;;;;;4.74;100.00;100120.13;5260237;28;20055;-80
2022/01/10 01:29:19;;;;;;;16.30;5.63;;;;;;;4.71;100.00;100125.38;5253886;28;20467;-81
2022/01/10 01:31:51;;;;;;;13.13;5.30;;;;;;;4.75;100.00;100121.81;5231723;28;20085;-81
2022/01/10 01:34:23;;;;;;;15.13;5.18;;;;;;;4.70;100.00;100123.66;5270921;22;20138;-82
2022/01/10 01:36:55;;;;;;;10.82;5.10;;;;;;;4.65;100.00;100135.81;5236588;28;20024;-82
2022/01/10 01:39:29;;;;;;;11.73;5.75;;;;;;;4.58;100.00;100138.53;5240255;28;20111;-82
2022/01/10 01:42:06;;;;;;;17.02;6.53;;;;;;;4.52;100.00;100139.53;5249784;28;20061;-82
2022/01/10 01:44:36;;;;;;;12.38;5.88;;;;;;;4.70;100.00;100144.38;5248154;28;20037;-82
2022/01/10 01:47:07;;;;;;;14.57;5.93;;;;;;;4.57;100.00;100153.22;5248288;28;20027;-83
2022/01/10 01:49:37;;;;;;;15.32;5.75;;;;;;;4.54;100.00;100158.47;5229946;28;20028;-82
2022/01/10 01:52:07;;;;;;;13.60;5.85;;;;;;;4.66;100.00;100162.56;5230224;28;20028;-82
2022/01/10 01:54:38;;;;;;;13.73;5.65;;;;;;;4.65;100.00;100166.03;5246702;28;20037;-82
2022/01/10 01:57:08;;;;;;;14.18;5.80;;;;;;;4.57;100.00;100160.13;5243983;28;20024;-82
2022/01/10 01:59:39;;;;;;;10.00;5.00;;;;;;;4.40;100.00;100168.19;5247302;28;20371;-82
2022/01/10 02:02:09;;;;;;;13.75;6.22;;;;;;;4.32;100.00;100171.78;5230709;28;20078;-82
2022/01/10 02:04:39;;;;;;;13.77;6.47;;;;;;;4.39;100.00;100179.44;5221696;28;20355;-82
2022/01/10 02:07:10;;;;;;;11.63;6.13;;;;;;;4.39;100.00;100178.56;5222336;28;20021;-82
2022/01/10 02:09:40;;;;;;;15.30;5.95;;;;;;;4.16;100.00;100189.28;5237733;28;20032;-82
2022/01/10 02:12:11;;;;;;;14.02;5.95;;;;;;;4.27;100.00;100183.97;5221606;28;20016;-82
2022/01/10 02:14:46;;;;;;;10.50;5.13;;;;;;;4.38;100.00;100195.81;5244182;28;20130;-82
2022/01/10 02:17:22;;;;;;;12.90;5.47;;;;;;;4.35;100.00;100200.19;5239679;28;20488;-82
2022/01/10 02:19:54;;;;;;;16.73;6.03;;;;;;;4.16;100.00;100209.97;5223694;28;20047;-83
2022/01/10 02:22:25;;;;;;;15.43;6.38;;;;;;;4.11;100.00;100211.78;5225716;28;20657;-83
2022/01/10 02:24:55;;;;;;;17.23;6.00;;;;;;;4.16;100.00;100212.53;5219620;28;20021;-82
2022/01/10 02:27:26;;;;;;;16.95;6.43;;;;;;;4.06;100.00;100229.09;5223889;28;20021;-82
2022/01/10 02:29:56;;;;;;;15.48;6.50;;;;;;;4.12;100.00;100221.22;5219976;28;20044;-82
2022/01/10 02:32:26;;;;;;;14.20;6.25;;;;;;;4.11;100.00;100232.47;5217777;28;20482;-83
2022/01/10 02:34:57;;;;;;;16.92;6.05;;;;;;;3.97;100.00;100229.22;5223014;28;20027;-82
2022/01/10 02:37:35;;;;;;;10.43;5.72;;;;;;;4.06;100.00;100234.28;5238638;28;20116;-82
2022/01/10 02:40:07;;;;;;;14.32;6.78;;;;;;;3.95;100.00;100241.31;5219526;28;20092;-82
2022/01/10 02:42:37;;;;;;;17.70;6.65;;;;;;;4.00;100.00;100238.66;5225393;28;20089;-82
2022/01/10 02:45:08;;;;;;;14.98;6.93;;;;;;;3.98;100.00;100249.03;5240778;28;20025;-82
2022/01/10 02:47:38;;;;;;;13.75;6.43;;;;;;;4.06;100.00;100260.13;5219120;28;20420;-83
2022/01/10 02:50:10;;;;;;;17.80;7.45;;;;;;;4.28;100.00;100258.91;5224671;28;20059;-82
2022/01/10 02:52:41;;;;;;;15.50;6.18;;;;;;;4.17;100.00;100263.41;5225580;28;20031;-82
2022/01/10 02:55:12;;;;;;;17.13;6.10;;;;;;;4.10;100.00;100272.13;5224322;28;20387;-82
2022/01/10 02:57:43;;;;;;;15.07;6.28;;;;;;;4.07;100.00;100274.75;5223924;28;20057;-83
2022/01/10 03:00:18;;;;;;;15.82;6.15;;;;;;;4.19;100.00;100284.94;5242426;28;20025;-83
2022/01/10 03:02:51;;;;;;;15.18;6.07;;;;;;;4.18;100.00;100288.38;5223023;28;20612;-82
2022/01/10 03:05:23;;;;;;;14.35;6.30;;;;;;;4.11;100.00;100288.50;5219745;28;20029;-82
2022/01/10 03:07:55;;;;;;;13.55;5.45;;;;;;;4.13;100.00;100290.16;5221831;28;20119;-83
2022/01/10 03:10:26;;;;;;;14.00;6.10;;;;;;;4.15;100.00;100297.91;5221413;28;20035;-83
2022/01/10 03:12:58;;;;;;;12.45;5.60;;;;;;;4.15;100.00;100297.91;5239275;28;20017;-82
2022/01/10 03:15:29;;;;;;;15.00;6.10;;;;;;;4.04;100.00;100303.25;5238557;28;20031;-83
2022/01/10 03:18:00;;;;;;;14.80;5.63;;;;;;;4.09;100.00;100310.94;5240759;28;20663;-83
2022/01/10 03:20:30;;;;;;;14.25;5.82;;;;;;;4.19;100.00;100313.38;5221473;28;20040;-83
2022/01/10 03:23:01;;;;;;;11.10;5.25;;;;;;;4.06;100.00;100318.72;5238813;28;20017;-83
2022/01/10 03:25:31;;;;;;;15.95;5.82;;;;;;;4.06;100.00;100318.72;5240426;28;20082;-83
2022/01/10 03:28:02;;;;;;;10.75;5.53;;;;;;;3.95;100.00;100321.44;5225015;28;20088;-82
2022/01/10 03:30:34;;;;;;;13.27;5.80;;;;;;;3.89;100.00;100321.53;5221549;28;20024;-82
2022/01/10 03:33:04;;;;;;;19.33;7.03;;;;;;;4.05;100.00;100330.81;5218547;28;20055;-82
2022/01/10 03:35:35;;;;;;;15.18;6.72;;;;;;;4.14;100.00;100337.56;5238575;28;20462;-82
2022/01/10 03:38:06;;;;;;;15.27;6.07;;;;;;;4.06;100.00;100332.50;5237340;28;20052;-82
2022/01/10 03:40:36;;;;;;;15.88;6.43;;;;;;;4.08;100.00;100342.81;5237192;28;20027;-82
2022/01/10 03:43:06;;;;;;;14.35;5.93;;;;;;;4.17;100.00;100342.69;5236028;28;20024;-82
2022/01/10 03:45:37;;;;;;;12.65;6.00;;;;;;;4.18;100.00;100350.44;5234812;28;20513;-82
2022/01/10 03:48:07;;;;;;;18.13;6.80;;;;;;;4.09;100.00;100358.31;5233437;28;20051;-82
2022/01/10 03:50:37;;;;;;;13.68;5.90;;;;;;;4.17;100.00;100361.66;5239436;28;20120;-82
2022/01/10 03:53:08;;;;;;;14.95;6.00;;;;;;;4.26;100.00;100358.94;5236314;28;20517;-82
2022/01/10 03:55:38;;;;;;;17.35;6.18;;;;;;;4.17;100.00;100361.66;5215763;28;20037;-82
2022/01/10 03:58:08;;;;;;;16.80;5.78;;;;;;;4.20;100.00;100374.56;5223032;28;20028;-82
2022/01/10 04:00:39;;;;;;;17.42;6.18;;;;;;;4.21;100.00;100381.44;5236802;28;20059;-82
2022/01/10 04:03:09;;;;;;;14.32;5.93;;;;;;;4.26;100.00;100369.28;5218840;28;20021;-82
2022/01/10 04:05:39;;;;;;;13.00;5.93;;;;;;;4.25;100.00;100382.22;5238861;28;20025;-82
2022/01/10 04:08:12;;;;;;;15.85;5.40;;;;;;;4.41;100.00;100387.19;5218812;28;20570;-82
2022/01/10 04:10:42;;;;;;;13.45;5.20;;;;;;;4.42;100.00;100388.03;5223240;28;20391;-82
2022/01/10 04:13:12;;;;;;;17.80;6.07;;;;;;;4.20;100.00;100395.25;5218823;28;20032;-82
2022/01/10 04:15:42;;;;;;;19.55;6.57;;;;;;;4.21;100.00;100396.94;5235286;28;20498;-82
2022/01/10 04:18:13;;;;;;;9.85;5.53;;;;;;;4.20;100.00;100397.81;5237663;28;20172;-82
2022/01/10 04:20:44;;;;;;;14.43;5.57;;;;;;;4.33;100.00;100409.69;5233264;28;20133;-82
2022/01/10 04:23:16;;;;;;;13.85;5.88;;;;;;;4.23;100.00;100410.72;5237771;28;20029;-82
2022/01/10 04:25:46;;;;;;;15.77;5.47;;;;;;;4.21;100.00;100415.06;5235456;28;20108;-82
2022/01/10 04:28:17;;;;;;;11.52;5.63;;;;;;;4.28;100.00;100416.66;5236263;28;20315;-83
2022/01/10 04:30:48;;;;;;;18.00;5.85;;;;;;;4.27;100.00;100427.91;5217663;28;20032;-82
2022/01/10 04:33:19;;;;;;;14.30;5.28;;;;;;;4.35;100.00;100431.25;5220317;28;20401;-82
2022/01/10 04:35:50;;;;;;;16.30;6.05;;;;;;;4.43;100.00;100433.75;5220303;28;20040;-82
2022/01/10 04:38:21;;;;;;;16.38;5.97;;;;;;;4.41;100.00;100444.09;5222627;28;20250;-82
2022/01/10 04:40:52;;;;;;;16.83;5.65;;;;;;;4.44;100.00;100446.63;5216669;28;20028;-82
2022/01/10 04:43:22;;;;;;;19.15;6.47;;;;;;;4.28;100.00;100444.28;5237679;28;20027;-82
2022/01/10 04:45:53;;;;;;;13.88;5.90;;;;;;;4.36;100.00;100448.47;5235505;28;20025;-83
2022/01/10 04:48:23;;;;;;;18.38;6.00;;;;;;;4.28;100.00;100455.47;5220437;28;20028;-83
2022/01/10 04:53:24;;;;;;;15.88;6.32;;;;;;;4.37;100.00;100465.72;5237616;28;20164;-82
2022/01/10 04:55:54;;;;;;;12.52;5.75;;;;;;;4.40;100.00;100480.31;5219312;28;20028;-83
2022/01/10 04:58:25;;;;;;;22.65;6.07;;;;;;;4.44;100.00;100482.03;5239044;28;20021;-82
2022/01/10 05:00:55;;;;;;;12.45;6.60;;;;;;;4.42;100.00;100491.50;5220959;28;20027;-82
2022/01/10 05:03:25;;;;;;;18.63;6.70;;;;;;;4.46;100.00;100488.88;5234022;28;20032;-82
2022/01/10 05:05:55;;;;;;;16.02;6.00;;;;;;;4.46;100.00;100499.22;5238863;28;20382;-82
2022/01/10 05:08:26;;;;;;;17.90;5.78;;;;;;;4.32;100.00;100493.34;5236574;28;20021;-82
2022/01/10 05:10:57;;;;;;;20.30;6.18;;;;;;;4.20;100.00;100503.84;5217752;28;20276;-82
2022/01/10 05:13:27;;;;;;;19.50;6.20;;;;;;;4.20;100.00;100503.84;5218883;28;20364;-83
2022/01/10 05:15:57;;;;;;;17.30;6.00;;;;;;;4.20;100.00;100503.84;5220534;28;20111;-83
2022/01/10 05:18:28;;;;;;;18.67;6.55;;;;;;;4.28;100.00;100512.38;5218036;28;20027;-82
2022/01/10 05:20:58;;;;;;;12.90;6.28;;;;;;;4.42;100.00;100514.78;5219777;28;20090;-83
2022/01/10 05:23:28;;;;;;;18.08;5.40;;;;;;;4.36;100.00;100517.44;5239398;28;20095;-83
2022/01/10 05:25:59;;;;;;;14.13;5.75;;;;;;;4.29;100.00;100524.44;5238728;28;20216;-82
2022/01/10 05:28:29;;;;;;;16.02;6.63;;;;;;;4.21;100.00;100539.19;5234996;28;20029;-82
2022/01/10 05:31:01;;;;;;;17.63;6.05;;;;;;;4.19;100.00;100532.31;5215722;28;20383;-83
2022/01/10 05:33:31;;;;;;;14.63;6.03;;;;;;;4.24;100.00;100540.84;5216161;28;20523;-82
2022/01/10 05:36:02;;;;;;;17.52;6.55;;;;;;;4.31;100.00;100548.53;5222823;28;20025;-82
2022/01/10 05:38:32;;;;;;;17.73;6.00;;;;;;;4.30;100.00;100552.00;5216607;28;20066;-82
2022/01/10 05:41:02;;;;;;;15.35;5.80;;;;;;;4.23;100.00;100557.25;5240725;28;20025;-82
2022/01/10 05:43:33;;;;;;;16.10;6.22;;;;;;;4.23;100.00;100558.13;5240672;28;20024;-82
2022/01/10 05:46:07;;;;;;;15.90;5.60;;;;;;;4.16;100.00;100574.56;5223904;28;20095;-83
2022/01/10 05:48:40;;;;;;;20.33;5.82;;;;;;;4.14;100.00;100571.13;5223351;28;20532;-82
2022/01/10 05:51:10;;;;;;;11.70;4.82;;;;;;;4.11;100.00;100578.94;5225979;28;20126;-82
2022/01/10 05:53:41;;;;;;;20.02;5.90;;;;;;;4.10;100.00;100582.38;5218478;28;20097;-82
2022/01/10 05:56:12;;;;;;;13.88;5.78;;;;;;;4.08;100.00;100591.88;5235442;28;20032;-83
2022/01/10 05:58:43;;;;;;;16.13;6.97;;;;;;;4.16;100.00;100599.56;5240572;28;20029;-82
2022/01/10 06:01:13;;;;;;;15.43;6.95;;;;;;;4.14;100.00;100597.00;5239734;28;20031;-83
2022/01/10 06:03:43;;;;;;;15.32;6.32;;;;;;;4.04;100.00;100610.91;5241867;28;20021;-83
2022/01/10 06:06:14;;;;;;;15.05;6.40;;;;;;;4.03;100.00;100619.53;5239696;28;20020;-83
2022/01/10 06:08:44;;;;;;;13.48;6.43;;;;;;;4.04;100.00;100613.47;5244018;28;20020;-83
2022/01/10 06:11:14;;;;;;;16.70;6.53;;;;;;;4.05;100.00;100635.00;5223506;28;20024;-83
2022/01/10 06:13:45;;;;;;;16.27;5.90;;;;;;;4.17;100.00;100633.19;5238520;28;20120;-83
2022/01/10 06:16:16;;;;;;;18.73;6.05;;;;;;;4.09;100.00;100642.72;5239609;28;20036;-83
2022/01/10 06:18:46;;;;;;;16.30;6.07;;;;;;;4.07;100.00;100651.34;5241388;28;20036;-82
2022/01/10 06:21:16;;;;;;;13.75;6.25;;;;;;;4.05;100.00;100659.16;5222402;28;20025;-84
2022/01/10 06:23:47;;;;;;;13.25;6.38;;;;;;;4.04;100.00;100661.72;5220375;28;20045;-84
2022/01/10 06:26:17;;;;;;;16.92;7.97;;;;;;;4.00;100.00;100666.09;5235538;28;20123;-83
2022/01/10 06:28:47;;;;;;;14.43;6.07;;;;;;;4.00;100.00;100679.00;5215371;28;20394;-84
2022/01/10 06:31:18;;;;;;;16.52;6.65;;;;;;;4.01;100.00;100682.44;5223937;28;20438;-84
2022/01/10 06:33:48;;;;;;;19.10;7.30;;;;;;;4.01;100.00;100685.03;5237713;28;20039;-83
2022/01/10 06:36:19;;;;;;;18.63;7.90;;;;;;;4.11;100.00;100691.84;5218180;28;20082;-83
2022/01/10 06:38:52;;;;;;;15.25;7.03;;;;;;;4.10;100.00;100698.75;5229076;28;20024;-83
2022/01/10 06:41:22;;;;;;;21.75;7.35;;;;;;;4.09;100.00;100706.53;5230984;28;20020;-83
2022/01/10 06:43:52;;;;;;;17.77;7.47;;;;;;;4.12;100.00;100715.09;5248619;28;20382;-83
2022/01/10 06:46:23;;;;;;;18.00;7.28;;;;;;;4.10;100.00;100716.84;5232210;28;20143;-84
2022/01/10 06:48:53;;;;;;;15.95;7.25;;;;;;;4.12;100.00;100722.00;5231252;28;20028;-83
2022/01/10 06:51:23;;;;;;;19.70;6.55;;;;;;;4.07;100.00;100734.97;5222711;28;20028;-83
2022/01/10 06:53:54;;;;;;;19.10;7.47;;;;;;;4.09;100.00;100734.97;5239940;28;20060;-83
2022/01/10 06:56:24;;;;;;;14.07;6.68;;;;;;;4.07;100.00;100745.31;5243971;28;20658;-83
2022/01/10 06:58:54;;;;;;;18.25;7.40;;;;;;;4.01;100.00;100750.53;5223226;28;20111;-84
2022/01/10 07:01:25;;;;;;;16.48;7.65;;;;;;;4.03;100.00;100756.56;5240672;28;20367;-83
2022/01/10 07:03:57;;;;;;;14.45;7.32;;;;;;;4.06;100.00;100764.28;5223599;28;20311;-83
2022/01/10 07:06:27;;;;;;;19.90;7.78;;;;;;;4.10;100.00;100772.88;5231823;28;20028;-83
2022/01/10 07:08:57;;;;;;;26.17;7.50;;;;;;;4.03;100.00;100779.81;5247238;28;20024;-83
2022/01/10 07:11:28;;;;;;;21.55;7.15;;;;;;;4.04;100.00;100785.84;5219236;28;20037;-83
2022/01/10 07:13:58;;;;;;;19.95;7.28;;;;;;;4.04;100.00;100786.72;5224013;28;20035;-83
2022/01/10 07:16:28;;;;;;;15.43;7.45;;;;;;;4.04;100.00;100796.19;5220372;28;20021;-84
2022/01/10 07:18:59;;;;;;;19.15;7.45;;;;;;;4.08;100.00;100803.91;5220356;28;20457;-83
2022/01/10 07:21:30;;;;;;;16.40;7.68;;;;;;;4.18;100.00;100810.75;5221367;28;20056;-83
2022/01/10 07:24:00;;;;;;;21.83;8.25;;;;;;;4.21;100.00;100815.91;5227900;28;20063;-83
2022/01/10 07:26:32;;;;;;;22.20;8.05;;;;;;;4.18;100.00;100821.09;5243285;28;20033;-82
2022/01/10 07:29:04;;;;;;;15.90;7.18;;;;;;;4.16;100.00;100825.41;5240873;28;20228;-83
2022/01/10 07:31:35;;;;;;;17.42;8.18;;;;;;;4.15;100.00;100830.59;5219926;28;20437;-83
2022/01/10 07:34:06;;;;;;;19.55;7.13;;;;;;;4.13;100.00;100835.75;5242677;22;20040;-80
2022/01/10 07:36:36;;;;;;;25.08;7.55;;;;;;;4.16;100.00;100846.09;5272309;28;20854;-79
2022/01/10 07:39:07;;;;;;;19.80;7.72;;;;;;;4.20;100.00;100839.19;5272368;28;20134;-80
2022/01/10 07:41:37;;;;;;;21.33;8.38;;;;;;;4.19;100.00;100853.84;5278767;28;20081;-80
2022/01/10 07:44:08;;;;;;;19.58;8.77;;;;;;;4.26;100.00;100846.94;5275925;28;20039;-81
2022/01/10 07:46:38;;;;;;;17.13;8.32;;;;;;;4.20;100.00;100852.97;5273743;28;20711;-80
2022/01/10 07:49:08;;;;;;;19.35;9.13;;;;;;;4.45;100.00;100858.88;5274247;28;20028;-79
2022/01/10 07:51:39;;;;;;;26.45;9.35;;;;;;;4.35;100.00;100855.47;5274080;28;20030;-80
2022/01/10 07:54:09;;;;;;;27.27;9.70;;;;;;;4.59;100.00;100862.19;5274691;28;20539;-80
2022/01/10 07:56:40;;;;;;;23.50;9.80;;;;;;;4.66;100.00;100861.31;5273750;28;20484;-79
2022/01/10 07:59:10;;;;;;;21.73;9.20;;;;;;;4.65;100.00;100865.59;5275852;28;20027;-81
2022/01/10 08:01:40;;;;;;;20.48;8.70;;;;;;;4.72;100.00;100862.13;5273753;28;20103;-81
2022/01/10 08:04:10;;;;;;;20.30;8.32;;;;;;;4.79;100.00;100875.88;5275131;28;20027;-81
2022/01/10 08:06:41;;;;;;;19.25;7.97;;;;;;;4.82;100.00;100879.28;5275252;28;20024;-81
2022/01/10 08:09:11;;;;;;;27.05;8.20;;;;;;;4.73;100.00;100884.53;5268522;28;20481;-81
2022/01/10 08:11:41;;;;;;;19.17;7.60;;;;;;;4.67;100.00;100900.09;5275978;28;20059;-80
2022/01/10 08:14:12;;;;;;;23.33;7.75;;;;;;;4.50;100.00;100886.41;5273479;28;20043;-80
2022/01/10 08:16:42;;;;;;;20.17;7.82;;;;;;;4.59;100.00;100898.44;5273731;28;20031;-79
2022/01/10 08:19:12;;;;;;;16.95;8.05;;;;;;;4.54;100.00;100902.78;5273697;28;20032;-79
2022/01/10 08:21:42;;;;;;;20.92;7.88;;;;;;;4.57;100.00;100914.00;5272967;28;20058;-79
2022/01/10 08:24:13;;;;;;;20.52;8.23;;;;;;;4.62;100.00;100911.38;5273894;28;20316;-79
2022/01/10 08:26:43;;;;;;;21.27;7.95;;;;;;;4.59;100.00;100920.00;5275919;28;20035;-82
2022/01/10 08:29:13;;;;;;;20.65;8.07;;;;;;;4.73;100.00;100925.97;5272766;28;20024;-80
2022/01/10 08:31:45;;;;;;;25.35;8.68;;;;;;;4.78;100.00;100929.38;5273542;28;20446;-80
2022/01/10 08:34:15;;;;;;;21.80;8.70;;;;;;;4.83;100.00;100927.59;5275705;28;20026;-80
2022/01/10 08:36:45;;;;;;;19.75;8.85;;;;;;;4.74;100.00;100938.03;5274296;28;20036;-80
2022/01/10 08:39:17;;;;;;;19.23;8.60;;;;;;;4.84;100.00;100942.25;5242511;28;20546;-81
2022/01/10 08:41:47;;;;;;;17.98;7.85;;;;;;;4.83;100.00;100953.50;5268634;28;20027;-78
2022/01/10 08:44:17;;;;;;;21.25;7.50;;;;;;;4.82;100.00;100956.94;5267030;28;20027;-78
2022/01/10 08:46:48;;;;;;;20.75;7.55;;;;;;;4.98;100.00;100963.75;5270953;28;20032;-83
2022/01/10 08:49:18;;;;;;;23.25;7.15;;;;;;;5.13;100.00;100968.81;5275684;28;20477;-82
2022/01/10 08:51:54;;;;;;;15.85;6.82;;;;;;;5.12;100.00;100972.28;5269930;28;20048;-80
2022/01/10 08:54:25;;;;;;;24.70;7.25;;;;;;;5.01;100.00;100974.09;5271108;28;20081;-84
2022/01/10 08:56:55;;;;;;;21.90;8.82;;;;;;;5.05;100.00;100980.13;5274871;28;20024;-82
2022/01/10 08:59:28;;;;;;;29.85;10.82;;;;;;;5.21;100.00;100986.91;5270863;28;20115;-81
2022/01/10 09:01:59;;;;;;;29.27;8.05;;;;;;;5.30;100.00;100986.84;5275952;28;20066;-84
2022/01/10 09:04:29;;;;;;;19.33;7.88;;;;;;;5.48;100.00;100995.31;5269713;28;20151;-80
2022/01/10 09:07:02;;;;;;;22.70;8.27;;;;;;;5.47;100.00;101003.97;5271439;28;20494;-79
2022/01/10 09:09:32;;;;;;;20.70;8.43;;;;;;;5.38;100.00;101005.78;5272121;28;20048;-85
2022/01/10 09:12:03;;;;;;;23.17;9.02;;;;;;;5.42;100.00;101013.53;5275659;28;20056;-83
2022/01/10 09:14:34;;;;;;;25.55;8.40;;;;;;;5.46;100.00;101028.16;5271262;28;20035;-79
2022/01/10 09:17:04;;;;;;;20.70;7.35;;;;;;;5.40;100.00;101025.63;5275780;28;20035;-79
2022/01/10 09:19:34;;;;;;;26.60;7.85;;;;;;;5.36;100.00;101036.03;5272039;28;20028;-80
2022/01/10 09:22:05;;;;;;;23.00;8.80;;;;;;;5.30;100.00;101041.25;5277075;28;20020;-85
2022/01/10 09:24:35;;;;;;;33.53;9.82;;;;;;;5.31;100.00;101035.22;5274050;28;20126;-81
2022/01/10 09:27:05;;;;;;;23.52;8.55;;;;;;;5.29;100.00;101032.63;5272093;28;20426;-82
2022/01/10 09:29:35;;;;;;;27.13;9.05;;;;;;;5.24;100.00;101036.97;5233154;28;20140;-79
2022/01/10 09:32:08;;;;;;;17.90;7.60;;;;;;;5.24;100.00;101036.97;5270754;28;20032;-79
2022/01/10 09:34:39;;;;;;;23.38;8.80;;;;;;;5.31;100.00;101050.75;5278158;28;20062;-78
2022/01/10 09:37:10;;;;;;;22.70;7.63;;;;;;;5.23;100.00;101048.22;5280195;28;20507;-81
2022/01/10 09:39:40;;;;;;;23.75;7.38;;;;;;;5.38;100.00;101057.59;5232063;28;20034;-83
2022/01/10 09:42:12;;;;;;;18.35;7.97;;;;;;;5.32;100.00;101047.28;5268099;28;20464;-79
2022/01/10 09:44:43;;;;;;;18.95;8.02;;;;;;;5.36;100.00;101055.00;5276260;28;20477;-79
2022/01/10 09:47:13;;;;;;;20.55;7.47;;;;;;;5.39;100.00;101061.03;5272655;28;20022;-79
2022/01/10 09:49:43;;;;;;;19.27;7.55;;;;;;;5.49;100.00;101056.66;5275235;28;20051;-83
2022/01/10 09:52:16;;;;;;;21.95;7.25;;;;;;;5.75;100.00;101055.56;5267120;28;20036;-82
2022/01/10 09:54:46;;;;;;;19.42;7.93;;;;;;;5.76;100.00;101061.63;5268932;28;20039;-83
2022/01/10 09:57:16;;;;;;;18.15;7.15;;;;;;;5.59;100.00;101058.31;5254532;28;20145;-81
2022/01/10 09:59:47;;;;;;;24.20;8.15;;;;;;;5.74;100.00;101068.56;5271915;28;20036;-82
2022/01/10 10:02:18;;;;;;;24.58;8.75;;;;;;;5.55;100.00;101072.19;5273353;28;20100;-84
2022/01/10 10:04:48;;;;;;;22.50;9.23;;;;;;;5.76;100.00;101083.22;5276444;28;20032;-83
2022/01/10 10:07:22;;;;;;;27.95;9.63;;;;;;;5.72;100.00;101088.47;5271898;28;20032;-82
2022/01/10 10:09:57;;;;;;;25.52;10.40;;;;;;;5.92;100.00;101081.41;5269709;28;20034;-80
2022/01/10 10:12:28;;;;;;;31.17;13.25;;;;;;;5.91;100.00;101080.53;5275331;28;20030;-81
2022/01/10 10:15:07;;;;;;;26.42;9.23;;;;;;;5.94;100.00;101092.63;5278913;28;20027;-84
2022/01/10 10:17:39;;;;;;;23.92;10.20;;;;;;;5.91;100.00;101095.25;5272484;28;20024;-81
2022/01/10 10:20:16;;;;;;;22.50;8.95;;;;;;;6.01;100.00;101092.56;5273733;28;20027;-81
2022/01/10 10:22:47;;;;;;;20.38;7.55;;;;;;;6.02;100.00;101101.19;5273600;28;20055;-81
2022/01/10 10:25:18;;;;;;;23.25;9.38;;;;;;;5.98;100.00;101105.56;5274558;28;20036;-84
2022/01/10 10:27:48;;;;;;;23.20;8.52;;;;;;;6.04;100.00;101109.81;5223245;28;20068;-79
2022/01/10 10:30:26;;;;;;;24.50;9.60;;;;;;;6.00;100.00;101115.91;5256148;28;20115;-82
2022/01/10 10:33:17;;;;;;;20.05;8.43;;;;;;;5.88;100.00;101121.22;5274745;28;20318;-81
2022/01/10 10:36:04;;;;;;;30.05;13.27;;;;;;;6.05;100.00;101133.16;5274581;28;20036;-83
2022/01/10 10:38:35;;;;;;;25.65;10.65;;;;;;;5.99;100.00;101133.22;5274438;28;20046;-81
2022/01/10 10:41:06;;;;;;;22.52;10.55;;;;;;;6.10;100.00;101133.13;5274811;28;20027;-82
2022/01/10 10:43:39;;;;;;;24.63;11.55;;;;;;;5.95;100.00;101141.88;5278545;28;20015;-83
2022/01/10 10:46:15;;;;;;;22.92;10.68;;;;;;;5.90;100.00;101142.81;5271518;28;20032;-82
2022/01/10 10:48:53;;;;;;;31.63;10.60;;;;;;;6.11;100.00;101140.03;5283258;28;20096;-81
2022/01/10 10:51:27;;;;;;;29.35;11.90;;;;;;;6.19;100.00;101149.47;5279046;28;20107;-84
2022/01/10 10:54:09;;;;;;;19.83;7.55;;;;;;;6.19;100.00;101148.59;5274553;28;20023;-84
2022/01/10 10:56:42;;;;;;;21.92;7.57;;;;;;;5.95;100.00;101165.22;5276665;28;20466;-84
2022/01/10 10:59:12;;;;;;;20.70;8.95;;;;;;;6.10;100.00;101161.66;5282263;28;20023;-82
2022/01/10 11:01:43;;;;;;;19.75;7.78;;;;;;;6.11;100.00;101172.00;5289046;28;20041;-79
2022/01/10 11:04:13;;;;;;;21.98;7.45;;;;;;;6.16;100.00;101167.66;5280186;28;20031;-79
2022/01/10 11:06:43;;;;;;;21.92;8.38;;;;;;;6.10;100.00;101185.00;5284399;28;20051;-79
2022/01/10 11:09:14;;;;;;;25.60;8.90;;;;;;;6.01;100.00;101192.84;5268316;28;20050;-80
2022/01/10 11:11:47;;;;;;;24.17;9.07;;;;;;;5.99;100.00;101187.69;5282214;28;20031;-83
2022/01/10 11:14:22;;;;;;;24.48;8.80;;;;;;;6.01;100.00;101198.03;5267708;28;20028;-82
2022/01/10 11:16:54;;;;;;;30.85;9.88;;;;;;;5.99;100.00;101205.84;5267979;28;20412;-81
2022/01/10 11:19:26;;;;;;;18.95;9.70;;;;;;;5.90;100.00;101205.06;5267678;28;20031;-84
2022/01/10 11:22:05;;;;;;;22.70;9.68;;;;;;;5.83;100.00;101204.22;5284469;28;20032;-80
2022/01/10 11:24:50;;;;;;;21.45;9.25;;;;;;;5.78;100.00;101218.06;5288208;28;20035;-83
2022/01/10 11:27:32;;;;;;;22.80;8.73;;;;;;;5.83;100.00;101218.91;5272412;28;20019;-83
2022/01/10 11:30:24;;;;;;;24.48;8.65;;;;;;;5.83;100.00;101218.91;5266567;28;20397;-82
2022/01/10 11:33:06;;;;;;;22.08;8.93;;;;;;;5.89;100.00;101213.72;5274501;28;20103;-83
2022/01/10 11:35:39;;;;;;;26.75;9.55;;;;;;;5.97;100.00;101217.09;5269336;28;20404;-84
2022/01/10 11:38:40;;;;;;;21.15;8.85;;;;;;;5.98;100.00;101218.81;5272610;28;20102;-84
2022/01/10 11:41:13;;;;;;;23.17;8.10;;;;;;;5.94;100.00;101227.50;5239175;28;20032;-80
2022/01/10 11:43:44;;;;;;;26.30;8.95;;;;;;;6.07;100.00;101232.59;5266183;28;20032;-82
2022/01/10 11:46:34;;;;;;;21.88;8.45;;;;;;;6.17;100.00;101235.97;5272326;28;20028;-80